createdAt,value
2018-07-26T00:01:38.957Z,946.99
2018-07-26T00:04:05.262Z,946.98
2018-07-26T00:06:31.576Z,946.99
2018-07-26T00:08:57.883Z,946.99
2018-07-26T00:11:24.196Z,946.93
2018-07-26T00:13:50.507Z,946.90
2018-07-26T00:16:16.815Z,946.92
2018-07-26T00:18:43.118Z,946.96
2018-07-26T00:21:09.453Z,946.91
2018-07-26T00:23:35.742Z,946.88
2018-07-26T00:26:02.046Z,946.84
2018-07-26T00:28:28.361Z,946.88
2018-07-26T00:30:54.662Z,946.89
2018-07-26T00:33:20.970Z,946.89
2018-07-26T00:35:47.284Z,946.86
2018-07-26T00:38:13.601Z,946.90
2018-07-26T00:40:39.919Z,946.90
2018-07-26T00:43:06.228Z,946.93
2018-07-26T00:45:32.543Z,946.94
2018-07-26T00:47:58.895Z,947.02
2018-07-26T00:50:25.204Z,946.97
2018-07-26T00:52:51.521Z,946.92
2018-07-26T00:55:17.838Z,946.89
2018-07-26T00:57:44.156Z,946.93
2018-07-26T01:00:10.501Z,946.94
2018-07-26T01:02:36.817Z,946.94
2018-07-26T01:05:03.142Z,946.98
2018-07-26T01:07:29.505Z,946.94
2018-07-26T01:09:55.822Z,946.93
2018-07-26T01:12:22.134Z,946.90
2018-07-26T01:14:48.445Z,946.87
2018-07-26T01:17:14.797Z,946.85
2018-07-26T01:19:41.103Z,946.86
2018-07-26T01:22:07.461Z,946.82
2018-07-26T01:24:33.767Z,946.83
2018-07-26T01:27:00.076Z,946.84
2018-07-26T01:29:26.394Z,946.82
2018-07-26T01:31:52.710Z,946.79
2018-07-26T01:34:19.020Z,946.86
2018-07-26T01:36:45.335Z,946.85
2018-07-26T01:39:11.650Z,946.76
2018-07-26T01:41:37.976Z,946.81
2018-07-26T01:44:04.290Z,946.79
2018-07-26T01:46:30.599Z,946.83
2018-07-26T01:48:56.906Z,946.87
2018-07-26T01:51:23.218Z,946.88
2018-07-26T01:53:49.537Z,946.87
2018-07-26T01:56:15.863Z,946.84
2018-07-26T01:58:42.178Z,946.87
2018-07-26T02:01:08.489Z,946.82
2018-07-26T02:03:34.808Z,946.83
2018-07-26T02:06:01.132Z,946.86
2018-07-26T02:08:27.450Z,946.87
2018-07-26T02:10:53.763Z,946.85
2018-07-26T02:13:20.077Z,946.77
2018-07-26T02:15:46.384Z,946.71
2018-07-26T02:18:12.701Z,946.65
2018-07-26T02:20:39.016Z,946.73
2018-07-26T02:23:05.347Z,946.81
2018-07-26T02:25:31.658Z,946.80
2018-07-26T02:27:57.968Z,946.81
2018-07-26T02:30:24.282Z,946.77
2018-07-26T02:32:50.605Z,946.82
2018-07-26T02:35:16.920Z,946.81
2018-07-26T02:37:43.233Z,946.88
2018-07-26T02:40:09.549Z,946.92
2018-07-26T02:42:35.865Z,946.94
2018-07-26T02:45:02.173Z,946.91
2018-07-26T02:47:28.497Z,946.98
2018-07-26T02:49:54.801Z,947.01
2018-07-26T02:52:21.109Z,946.93
2018-07-26T02:54:47.420Z,946.93
2018-07-26T02:57:13.737Z,946.94
2018-07-26T02:59:40.052Z,946.93
2018-07-26T03:02:06.371Z,946.97
2018-07-26T03:04:32.682Z,946.97
2018-07-26T03:06:58.991Z,946.96
2018-07-26T03:09:25.310Z,946.97
2018-07-26T03:11:51.617Z,947.05
2018-07-26T03:14:17.970Z,947.01
2018-07-26T03:16:44.290Z,947.01
2018-07-26T03:19:10.603Z,947.00
2018-07-26T03:21:36.923Z,947.02
2018-07-26T03:24:03.236Z,947.01
2018-07-26T03:26:29.546Z,947.00
2018-07-26T03:28:55.856Z,946.99
2018-07-26T03:31:22.166Z,947.02
2018-07-26T03:33:48.472Z,947.01
2018-07-26T03:36:14.791Z,947.08
2018-07-26T03:38:41.104Z,947.10
2018-07-26T03:41:07.451Z,947.08
2018-07-26T03:43:33.817Z,947.13
2018-07-26T03:46:00.078Z,947.14
2018-07-26T03:48:26.389Z,947.15
2018-07-26T03:50:52.707Z,947.18
2018-07-26T03:53:19.022Z,947.28
2018-07-26T03:55:45.340Z,947.24
2018-07-26T03:58:11.654Z,947.20
2018-07-26T04:00:37.975Z,947.20
2018-07-26T04:03:04.283Z,947.28
2018-07-26T04:05:30.611Z,947.23
2018-07-26T04:07:56.955Z,947.20
2018-07-26T04:10:23.263Z,947.26
2018-07-26T04:12:49.581Z,947.24
2018-07-26T04:15:15.896Z,947.34
2018-07-26T04:17:42.208Z,947.33
2018-07-26T04:20:08.551Z,947.36
2018-07-26T04:22:34.829Z,947.37
2018-07-26T04:25:01.145Z,947.45
2018-07-26T04:27:27.452Z,947.48
2018-07-26T04:29:53.760Z,947.47
2018-07-26T04:32:20.075Z,947.44
2018-07-26T04:34:46.389Z,947.47
2018-07-26T04:37:12.719Z,947.45
2018-07-26T04:39:39.024Z,947.46
2018-07-26T04:42:05.333Z,947.52
2018-07-26T04:44:31.649Z,947.52
2018-07-26T04:46:57.960Z,947.48
2018-07-26T04:49:24.270Z,947.47
2018-07-26T04:51:50.580Z,947.48
2018-07-26T04:54:16.901Z,947.58
2018-07-26T04:56:43.249Z,947.54
2018-07-26T04:59:09.569Z,947.57
2018-07-26T05:01:35.894Z,947.59
2018-07-26T05:04:02.220Z,947.69
2018-07-26T05:06:28.523Z,947.68
2018-07-26T05:08:54.837Z,947.69
2018-07-26T05:11:21.193Z,947.64
2018-07-26T05:13:47.500Z,947.64
2018-07-26T05:16:13.824Z,947.60
2018-07-26T05:18:40.144Z,947.69
2018-07-26T05:21:06.464Z,947.68
2018-07-26T05:23:32.816Z,947.66
2018-07-26T05:25:59.125Z,947.66
2018-07-26T05:28:25.445Z,947.73
2018-07-26T05:30:51.761Z,947.72
2018-07-26T05:33:18.114Z,947.74
2018-07-26T05:35:44.432Z,947.69
2018-07-26T05:38:10.754Z,947.77
2018-07-26T05:40:37.064Z,947.83
2018-07-26T05:43:03.383Z,947.82
2018-07-26T05:45:29.753Z,947.87
2018-07-26T05:47:56.063Z,947.88
2018-07-26T05:50:22.378Z,947.89
2018-07-26T05:52:48.691Z,947.93
2018-07-26T05:55:15.008Z,947.99
2018-07-26T05:57:41.372Z,947.95
2018-07-26T06:00:07.708Z,948.01
2018-07-26T06:02:34.003Z,947.99
2018-07-26T06:05:00.319Z,947.94
2018-07-26T06:07:26.672Z,947.90
2018-07-26T06:09:52.991Z,947.93
2018-07-26T06:12:19.309Z,947.94
2018-07-26T06:14:45.627Z,948.01
2018-07-26T06:17:11.986Z,948.00
2018-07-26T06:19:38.260Z,948.03
2018-07-26T06:22:04.613Z,947.95
2018-07-26T06:24:30.925Z,947.94
2018-07-26T06:26:57.284Z,948.00
2018-07-26T06:29:23.596Z,947.95
2018-07-26T06:31:49.913Z,947.96
2018-07-26T06:34:16.267Z,947.94
2018-07-26T06:36:42.576Z,948.00
2018-07-26T06:39:08.889Z,948.01
2018-07-26T06:41:35.259Z,947.97
2018-07-26T06:44:01.573Z,948.02
2018-07-26T06:46:27.908Z,947.98
2018-07-26T06:48:54.228Z,947.98
2018-07-26T06:51:20.549Z,947.93
2018-07-26T06:53:46.867Z,947.94
2018-07-26T06:56:13.196Z,947.83
2018-07-26T06:58:39.508Z,947.89
2018-07-26T07:01:05.820Z,947.92
2018-07-26T07:03:32.133Z,947.99
2018-07-26T07:05:58.487Z,947.89
2018-07-26T07:08:24.806Z,947.93
2018-07-26T07:10:51.169Z,947.95
2018-07-26T07:13:17.476Z,947.99
2018-07-26T07:15:43.793Z,947.97
2018-07-26T07:18:10.114Z,947.97
2018-07-26T07:20:36.469Z,947.99
2018-07-26T07:23:02.745Z,947.99
2018-07-26T07:25:29.066Z,947.97
2018-07-26T07:27:55.478Z,947.94
2018-07-26T07:30:21.705Z,948.03
2018-07-26T07:32:48.017Z,947.96
2018-07-26T07:35:14.339Z,947.98
2018-07-26T07:37:40.656Z,947.97
2018-07-26T07:40:06.976Z,947.95
2018-07-26T07:42:33.304Z,948.00
2018-07-26T07:44:59.625Z,947.99
2018-07-26T07:47:26.115Z,948.02
2018-07-26T07:49:52.257Z,948.00
2018-07-26T07:52:18.585Z,948.04
2018-07-26T07:54:44.901Z,948.04
2018-07-26T07:57:11.223Z,948.02
2018-07-26T07:59:37.608Z,948.06
2018-07-26T08:02:03.861Z,948.05
2018-07-26T08:04:30.176Z,948.05
2018-07-26T08:06:56.494Z,948.03
2018-07-26T08:09:22.812Z,947.98
2018-07-26T08:11:49.137Z,948.02
2018-07-26T08:14:15.484Z,948.00
2018-07-26T08:16:41.840Z,948.04
2018-07-26T08:19:08.198Z,948.05
2018-07-26T08:21:34.523Z,948.01
2018-07-26T08:24:00.840Z,947.88
2018-07-26T08:26:27.192Z,947.98
2018-07-26T08:28:53.495Z,947.90
2018-07-26T08:31:19.815Z,947.92
2018-07-26T08:33:46.127Z,947.92
2018-07-26T08:36:12.448Z,947.91
2018-07-26T08:38:38.765Z,947.87
2018-07-26T08:41:05.171Z,947.87
2018-07-26T08:43:31.449Z,947.86
2018-07-26T08:45:57.754Z,947.83
2018-07-26T08:48:24.074Z,947.81
2018-07-26T08:50:50.420Z,947.80
2018-07-26T08:53:16.734Z,947.77
2018-07-26T08:55:43.051Z,947.78
2018-07-26T08:58:09.407Z,947.72
2018-07-26T09:00:35.712Z,947.75
2018-07-26T09:03:02.029Z,947.67
2018-07-26T09:05:28.338Z,947.71
2018-07-26T09:07:54.662Z,947.60
2018-07-26T09:10:21.063Z,947.66
2018-07-26T09:12:47.369Z,947.60
2018-07-26T09:15:13.681Z,947.62
2018-07-26T09:17:39.996Z,947.59
2018-07-26T09:20:06.319Z,947.53
2018-07-26T09:22:32.632Z,947.61
2018-07-26T09:24:58.943Z,947.53
2018-07-26T09:27:25.258Z,947.55
2018-07-26T09:29:51.598Z,947.57
2018-07-26T09:32:17.921Z,947.57
2018-07-26T09:34:44.239Z,947.57
2018-07-26T09:37:10.552Z,947.53
2018-07-26T09:39:36.916Z,947.46
2018-07-26T09:42:03.187Z,947.48
2018-07-26T09:44:29.492Z,947.46
2018-07-26T09:46:55.809Z,947.39
2018-07-26T09:49:22.132Z,947.42
2018-07-26T09:51:48.456Z,947.41
2018-07-26T09:54:14.755Z,947.48
2018-07-26T09:56:41.072Z,947.44
2018-07-26T09:59:07.379Z,947.47
2018-07-26T10:01:33.702Z,947.44
2018-07-26T10:04:00.009Z,947.40
2018-07-26T10:06:26.323Z,947.39
2018-07-26T10:08:52.643Z,947.33
2018-07-26T10:11:18.963Z,947.32
2018-07-26T10:13:45.278Z,947.38
2018-07-26T10:16:11.598Z,947.33
2018-07-26T10:18:37.903Z,947.40
2018-07-26T10:21:04.219Z,947.31
2018-07-26T10:23:30.576Z,947.27
2018-07-26T10:25:56.890Z,947.22
2018-07-26T10:28:23.195Z,947.19
2018-07-26T10:30:49.503Z,947.23
2018-07-26T10:33:15.828Z,947.17
2018-07-26T10:35:42.142Z,947.17
2018-07-26T10:38:08.480Z,947.08
2018-07-26T10:40:34.804Z,947.13
2018-07-26T10:43:01.111Z,947.12
2018-07-26T10:45:27.415Z,947.10
2018-07-26T10:47:53.733Z,947.13
2018-07-26T10:50:20.089Z,947.06
2018-07-26T10:52:46.403Z,947.08
2018-07-26T10:55:12.711Z,947.12
2018-07-26T10:57:39.043Z,947.09
2018-07-26T11:00:05.356Z,947.08
2018-07-26T11:02:31.723Z,947.08
2018-07-26T11:04:58.042Z,947.04
2018-07-26T11:07:24.349Z,946.96
2018-07-26T11:09:50.681Z,946.97
2018-07-26T11:12:17.001Z,946.96
2018-07-26T11:14:43.312Z,946.92
2018-07-26T11:17:09.655Z,947.00
2018-07-26T11:19:35.964Z,946.98
2018-07-26T11:22:02.278Z,946.95
2018-07-26T11:24:28.587Z,947.03
2018-07-26T11:26:54.900Z,947.00
2018-07-26T11:29:21.219Z,946.93
2018-07-26T11:31:47.533Z,946.98
2018-07-26T11:34:13.851Z,947.02
2018-07-26T11:36:40.159Z,947.09
2018-07-26T11:39:06.474Z,947.13
2018-07-26T11:41:32.807Z,947.13
2018-07-26T11:43:59.088Z,947.13
2018-07-26T11:46:25.407Z,947.15
2018-07-26T11:48:51.721Z,947.14
2018-07-26T11:51:18.028Z,947.19
2018-07-26T11:53:44.343Z,947.20
2018-07-26T11:56:10.665Z,947.19
2018-07-26T11:58:36.980Z,947.25
2018-07-26T12:01:03.292Z,947.29
2018-07-26T12:03:29.608Z,947.23
2018-07-26T12:05:55.920Z,947.19
2018-07-26T12:08:22.236Z,947.21
2018-07-26T12:10:48.545Z,947.17
2018-07-26T12:13:14.856Z,947.28
2018-07-26T12:15:41.175Z,947.16
2018-07-26T12:18:07.484Z,947.19
2018-07-26T12:20:33.796Z,947.17
2018-07-26T12:23:00.127Z,947.16
2018-07-26T12:25:26.432Z,947.11
2018-07-26T12:27:52.739Z,947.10
2018-07-26T12:30:19.088Z,947.21
2018-07-26T12:32:45.400Z,947.16
2018-07-26T12:35:11.730Z,947.15
2018-07-26T12:37:38.040Z,947.21
2018-07-26T12:40:04.351Z,947.27
2018-07-26T12:42:30.661Z,947.26
2018-07-26T12:44:56.972Z,947.20
2018-07-26T12:47:23.293Z,947.17
2018-07-26T12:49:49.591Z,947.11
2018-07-26T12:52:15.904Z,947.12
2018-07-26T12:54:42.257Z,947.13
2018-07-26T12:57:08.520Z,947.06
2018-07-26T12:59:34.825Z,947.10
2018-07-26T13:02:01.156Z,946.98
2018-07-26T13:04:27.467Z,946.98
2018-07-26T13:06:53.815Z,946.97
2018-07-26T13:09:20.124Z,946.97
2018-07-26T13:11:46.437Z,947.03
2018-07-26T13:14:12.751Z,947.07
2018-07-26T13:16:39.059Z,947.10
2018-07-26T13:19:05.419Z,947.14
2018-07-26T13:21:31.729Z,947.15
2018-07-26T13:23:58.039Z,947.17
2018-07-26T13:26:24.346Z,947.19
2018-07-26T13:28:50.651Z,947.22
2018-07-26T13:31:16.967Z,947.25
2018-07-26T13:33:43.274Z,947.18
2018-07-26T13:36:09.660Z,947.18
2018-07-26T13:38:35.938Z,947.17
2018-07-26T13:41:02.241Z,947.12
2018-07-26T13:43:28.548Z,947.16
2018-07-26T13:45:54.870Z,947.22
2018-07-26T13:48:21.192Z,947.20
2018-07-26T13:50:47.557Z,947.14
2018-07-26T13:53:13.915Z,947.16
2018-07-26T13:55:40.228Z,947.13
2018-07-26T13:58:06.535Z,947.15
2018-07-26T14:00:32.953Z,947.15
2018-07-26T14:02:59.340Z,947.10
2018-07-26T14:05:25.789Z,947.21
2018-07-26T14:07:54.035Z,947.21
2018-07-26T14:10:18.484Z,947.17
2018-07-26T14:12:44.818Z,947.21
2018-07-26T14:15:11.108Z,947.31
2018-07-26T14:17:37.428Z,947.29
2018-07-26T14:20:03.744Z,947.28
2018-07-26T14:22:30.093Z,947.38
2018-07-26T14:24:56.384Z,947.30
2018-07-26T14:27:22.700Z,947.35
2018-07-26T14:29:49.054Z,947.39
2018-07-26T14:32:15.341Z,947.34
2018-07-26T14:34:41.656Z,947.37
2018-07-26T14:37:07.973Z,947.43
2018-07-26T14:39:34.296Z,947.42
2018-07-26T14:42:00.596Z,947.43
2018-07-26T14:44:26.917Z,947.43
2018-07-26T14:46:53.228Z,947.33
2018-07-26T14:49:19.558Z,947.34
2018-07-26T14:51:45.896Z,947.29
2018-07-26T14:54:12.203Z,947.28
2018-07-26T14:56:38.573Z,947.30
2018-07-26T14:59:04.879Z,947.31
2018-07-26T15:01:31.197Z,947.39
2018-07-26T15:03:57.518Z,947.31
2018-07-26T15:06:23.844Z,947.28
2018-07-26T15:08:50.208Z,947.28
2018-07-26T15:11:16.498Z,947.26
2018-07-26T15:13:42.803Z,947.34
2018-07-26T15:16:09.121Z,947.40
2018-07-26T15:18:35.436Z,947.51
2018-07-26T15:21:01.772Z,947.57
2018-07-26T15:23:28.104Z,947.58
2018-07-26T15:25:54.417Z,947.66
2018-07-26T15:28:20.736Z,947.67
2018-07-26T15:30:47.085Z,947.70
2018-07-26T15:33:13.377Z,947.74
2018-07-26T15:35:39.688Z,947.71
2018-07-26T15:38:06.005Z,947.73
2018-07-26T15:40:32.310Z,947.67
2018-07-26T15:42:58.620Z,947.75
2018-07-26T15:45:24.953Z,947.72
2018-07-26T15:47:51.276Z,947.85
2018-07-26T15:50:17.597Z,947.88
2018-07-26T15:52:43.904Z,947.90
2018-07-26T15:55:10.216Z,947.93
2018-07-26T15:57:36.533Z,947.92
2018-07-26T16:00:04.668Z,947.92
2018-07-26T16:02:30.976Z,947.96
2018-07-26T16:04:57.307Z,948.02
2018-07-26T16:07:23.635Z,948.04
2018-07-26T16:09:49.967Z,948.08
2018-07-26T16:12:16.333Z,948.08
2018-07-26T16:14:42.588Z,948.11
2018-07-26T16:17:08.914Z,948.10
2018-07-26T16:19:35.242Z,948.11
2018-07-26T16:22:01.605Z,948.14
2018-07-26T16:24:27.878Z,948.16
2018-07-26T16:26:54.212Z,948.19
2018-07-26T16:29:20.529Z,948.34
2018-07-26T16:31:46.841Z,948.36
2018-07-26T16:34:13.157Z,948.35
2018-07-26T16:36:39.463Z,948.33
2018-07-26T16:39:05.776Z,948.32
2018-07-26T16:41:32.109Z,948.36
2018-07-26T16:43:58.446Z,948.37
2018-07-26T16:46:24.759Z,948.33
2018-07-26T16:48:51.110Z,948.36
2018-07-26T16:51:17.428Z,948.33
2018-07-26T16:53:43.755Z,948.35
2018-07-26T16:56:10.081Z,948.38
2018-07-26T16:58:36.527Z,948.42
2018-07-26T17:01:02.698Z,948.30
2018-07-26T17:03:29.006Z,948.38
2018-07-26T17:05:55.319Z,948.37
2018-07-26T17:08:21.626Z,948.39
2018-07-26T17:10:47.944Z,948.39
2018-07-26T17:13:14.278Z,948.45
2018-07-26T17:15:40.583Z,948.40
2018-07-26T17:18:06.891Z,948.44
2018-07-26T17:20:33.218Z,948.43
2018-07-26T17:22:59.550Z,948.51
2018-07-26T17:25:25.877Z,948.55
2018-07-26T17:27:52.230Z,948.49
2018-07-26T17:30:18.560Z,948.56
2018-07-26T17:32:44.947Z,948.60
2018-07-26T17:35:11.295Z,948.68
2018-07-26T17:37:37.641Z,948.69
2018-07-26T17:40:04.000Z,948.70
2018-07-26T17:42:30.303Z,948.76
2018-07-26T17:44:56.683Z,948.72
2018-07-26T17:47:22.958Z,948.73
2018-07-26T17:49:49.274Z,948.76
2018-07-26T17:52:15.584Z,948.82
2018-07-26T17:54:41.939Z,948.77
2018-07-26T17:57:08.267Z,948.81
2018-07-26T17:59:34.591Z,948.78
2018-07-26T18:02:00.928Z,948.87
2018-07-26T18:04:27.314Z,948.82
2018-07-26T18:06:53.625Z,948.77
2018-07-26T18:09:19.937Z,948.77
2018-07-26T18:11:46.273Z,948.75
2018-07-26T18:14:15.340Z,948.76
2018-07-26T18:16:41.652Z,948.79
2018-07-26T18:19:07.968Z,948.79
2018-07-26T18:21:34.345Z,948.80
2018-07-26T18:24:00.651Z,948.84
2018-07-26T18:26:27.000Z,948.80
2018-07-26T18:28:53.312Z,948.82
2018-07-26T18:31:19.645Z,948.85
2018-07-26T18:33:45.947Z,948.87
2018-07-26T18:36:12.282Z,948.87
2018-07-26T18:38:38.612Z,948.96
2018-07-26T18:41:04.924Z,948.99
2018-07-26T18:43:31.287Z,948.95
2018-07-26T18:45:57.614Z,948.96
2018-07-26T18:48:23.942Z,949.00
2018-07-26T18:50:50.257Z,948.98
2018-07-26T18:53:16.574Z,949.02
2018-07-26T18:55:42.880Z,949.12
2018-07-26T18:58:09.188Z,949.08
2018-07-26T19:00:35.515Z,949.14
2018-07-26T19:03:01.818Z,949.22
2018-07-26T19:05:28.149Z,949.27
2018-07-26T19:07:54.455Z,949.34
2018-07-26T19:10:20.782Z,949.34
2018-07-26T19:12:47.088Z,949.31
2018-07-26T19:15:13.400Z,949.33
2018-07-26T19:17:39.714Z,949.34
2018-07-26T19:20:06.043Z,949.32
2018-07-26T19:22:32.362Z,949.32
2018-07-26T19:24:58.729Z,949.33
2018-07-26T19:27:25.060Z,949.36
2018-07-26T19:29:51.376Z,949.37
2018-07-26T19:32:17.701Z,949.33
2018-07-26T19:34:44.016Z,949.41
2018-07-26T19:37:10.350Z,949.45
2018-07-26T19:39:36.700Z,949.43
2018-07-26T19:42:03.051Z,949.49
2018-07-26T19:44:29.402Z,949.55
2018-07-26T19:46:55.730Z,949.54
2018-07-26T19:49:22.067Z,949.47
2018-07-26T19:51:48.397Z,949.39
2018-07-26T19:54:14.769Z,949.37
2018-07-26T19:56:41.090Z,949.44
2018-07-26T19:59:07.418Z,949.48
2018-07-26T20:01:33.747Z,949.48
2018-07-26T20:04:00.137Z,949.53
2018-07-26T20:06:26.364Z,949.54
2018-07-26T20:08:52.685Z,949.48
2018-07-26T20:11:18.996Z,949.54
2018-07-26T20:13:45.344Z,949.52
2018-07-26T20:16:11.707Z,949.45
2018-07-26T20:18:38.016Z,949.46
2018-07-26T20:21:04.379Z,949.48
2018-07-26T20:23:30.722Z,949.46
2018-07-26T20:25:57.042Z,949.49
2018-07-26T20:28:23.349Z,949.46
2018-07-26T20:30:49.658Z,949.47
2018-07-26T20:33:15.967Z,949.54
2018-07-26T20:35:42.294Z,949.45
2018-07-26T20:38:08.622Z,949.43
2018-07-26T20:40:34.961Z,949.48
2018-07-26T20:43:01.260Z,949.51
2018-07-26T20:45:27.581Z,949.41
2018-07-26T20:47:53.886Z,949.45
2018-07-26T20:50:20.207Z,949.49
2018-07-26T20:52:46.529Z,949.52
2018-07-26T20:55:12.838Z,949.47
2018-07-26T20:57:39.147Z,949.45
2018-07-26T21:00:05.475Z,949.47
2018-07-26T21:02:31.801Z,949.42
2018-07-26T21:04:58.121Z,949.42
2018-07-26T21:07:24.425Z,949.41
2018-07-26T21:09:50.745Z,949.38
2018-07-26T21:12:17.050Z,949.46
2018-07-26T21:14:43.355Z,949.53
2018-07-26T21:17:09.675Z,949.56
2018-07-26T21:19:35.987Z,949.57
2018-07-26T21:22:02.302Z,949.58
2018-07-26T21:24:28.638Z,949.58
2018-07-26T21:26:54.959Z,949.62
2018-07-26T21:29:21.258Z,949.60
2018-07-26T21:31:47.633Z,949.57
2018-07-26T21:34:13.878Z,949.60
2018-07-26T21:36:40.198Z,949.57
2018-07-26T21:39:06.497Z,949.57
2018-07-26T21:41:32.809Z,949.62
2018-07-26T21:43:59.121Z,949.57
2018-07-26T21:46:25.465Z,949.61
2018-07-26T21:48:51.771Z,949.57
2018-07-26T21:51:18.074Z,949.54
2018-07-26T21:53:44.429Z,949.54
2018-07-26T21:56:10.738Z,949.60
2018-07-26T21:58:37.049Z,949.49
2018-07-26T22:01:03.401Z,949.51
2018-07-26T22:03:29.714Z,949.49
2018-07-26T22:05:56.065Z,949.52
2018-07-26T22:08:22.373Z,949.58
2018-07-26T22:10:48.681Z,949.61
2018-07-26T22:13:14.999Z,949.56
2018-07-26T22:15:41.342Z,949.58
2018-07-26T22:18:07.651Z,949.57
2018-07-26T22:20:33.953Z,949.58
2018-07-26T22:23:00.262Z,949.57
2018-07-26T22:25:26.566Z,949.58
2018-07-26T22:27:52.874Z,949.61
2018-07-26T22:30:19.179Z,949.60
2018-07-26T22:32:45.487Z,949.62
2018-07-26T22:35:11.791Z,949.69
2018-07-26T22:37:38.105Z,949.64
2018-07-26T22:40:04.411Z,949.59
2018-07-26T22:42:30.717Z,949.66
2018-07-26T22:44:57.061Z,949.65
2018-07-26T22:47:23.366Z,949.64
2018-07-26T22:49:49.675Z,949.58
2018-07-26T22:52:15.986Z,949.59
2018-07-26T22:54:42.283Z,949.57
2018-07-26T22:57:08.594Z,949.55
2018-07-26T22:59:34.893Z,949.53
2018-07-26T23:02:01.203Z,949.58
2018-07-26T23:04:27.559Z,949.61
2018-07-26T23:06:53.853Z,949.63
2018-07-26T23:09:20.157Z,949.51
2018-07-26T23:11:46.504Z,949.56
2018-07-26T23:14:12.855Z,949.57
2018-07-26T23:16:39.162Z,949.51
2018-07-26T23:19:05.513Z,949.52
2018-07-26T23:21:31.823Z,949.51
2018-07-26T23:23:58.133Z,949.52
2018-07-26T23:26:24.448Z,949.48
2018-07-26T23:28:50.750Z,949.46
2018-07-26T23:31:17.065Z,949.55
2018-07-26T23:33:43.377Z,949.52
2018-07-26T23:36:09.688Z,949.56
2018-07-26T23:38:36.004Z,949.54
2018-07-26T23:41:02.310Z,949.56
2018-07-26T23:43:28.620Z,949.54
2018-07-26T23:45:54.933Z,949.57
2018-07-26T23:48:21.244Z,949.55
2018-07-26T23:50:47.561Z,949.55
2018-07-26T23:53:13.874Z,949.56
2018-07-26T23:55:40.183Z,949.58
2018-07-26T23:58:06.497Z,949.57
